createdAt,value
2019-02-09T00:00:11.286Z,967.8
2019-02-09T00:01:12.530Z,967.9
2019-02-09T00:02:13.793Z,967.8
2019-02-09T00:03:15.074Z,967.7
2019-02-09T00:04:16.328Z,967.9
2019-02-09T00:05:17.577Z,967.7
2019-02-09T00:06:18.974Z,967.6
2019-02-09T00:07:20.207Z,967.6
2019-02-09T00:08:21.812Z,967.5
2019-02-09T00:09:23.090Z,967.4
2019-02-09T00:10:24.354Z,967.4
2019-02-09T00:11:25.590Z,967.4
2019-02-09T00:12:26.860Z,967.5
2019-02-09T00:13:28.306Z,967.4
2019-02-09T00:14:29.955Z,967.5
2019-02-09T00:15:31.296Z,967.5
2019-02-09T00:16:32.544Z,967.5
2019-02-09T00:17:36.579Z,967.3
2019-02-09T00:18:38.097Z,967.5
2019-02-09T00:19:39.380Z,967.4
2019-02-09T00:20:40.641Z,967.3
2019-02-09T00:21:42.182Z,967.3
2019-02-09T00:22:43.437Z,967.4
2019-02-09T00:23:44.734Z,967.2
2019-02-09T00:24:45.993Z,967.2
2019-02-09T00:25:47.296Z,967.2
2019-02-09T00:26:48.526Z,967.3
2019-02-09T00:27:50.140Z,967.1
2019-02-09T00:28:51.437Z,967.1
2019-02-09T00:29:52.714Z,967.1
2019-02-09T00:30:54.003Z,967
2019-02-09T00:31:55.288Z,967.1
2019-02-09T00:32:56.564Z,967.1
2019-02-09T00:33:57.874Z,967.1
2019-02-09T00:34:59.161Z,966.9
2019-02-09T00:36:00.429Z,967
2019-02-09T00:37:01.684Z,966.9
2019-02-09T00:38:02.966Z,967
2019-02-09T00:39:04.263Z,966.9
2019-02-09T00:40:05.511Z,966.8
2019-02-09T00:41:06.762Z,966.8
2019-02-09T00:42:08.013Z,966.9
2019-02-09T00:43:09.266Z,966.8
2019-02-09T00:44:11.574Z,966.8
2019-02-09T00:45:12.870Z,966.7
2019-02-09T00:46:14.118Z,966.9
2019-02-09T00:47:15.390Z,966.7
2019-02-09T00:48:16.647Z,966.8
2019-02-09T00:49:17.918Z,966.8
2019-02-09T00:50:22.225Z,966.8
2019-02-09T00:51:23.451Z,966.7
2019-02-09T00:52:24.713Z,966.8
2019-02-09T00:53:28.791Z,966.7
2019-02-09T00:54:30.237Z,966.7
2019-02-09T00:55:31.487Z,966.7
2019-02-09T00:56:32.729Z,966.6
2019-02-09T00:57:33.984Z,966.7
2019-02-09T00:58:35.256Z,966.8
2019-02-09T00:59:36.536Z,966.7
2019-02-09T01:00:37.828Z,966.6
2019-02-09T01:01:39.099Z,966.4
2019-02-09T01:02:40.411Z,966.6
2019-02-09T01:03:41.641Z,966.6
2019-02-09T01:04:42.947Z,966.6
2019-02-09T01:05:44.201Z,966.5
2019-02-09T01:06:45.457Z,966.4
2019-02-09T01:07:46.716Z,966.5
2019-02-09T01:08:47.994Z,966.4
2019-02-09T01:09:49.587Z,966.6
2019-02-09T01:10:50.853Z,966.5
2019-02-09T01:11:52.101Z,966.4
2019-02-09T01:12:53.357Z,966.5
2019-02-09T01:13:54.913Z,966.5
2019-02-09T01:14:56.269Z,966.5
2019-02-09T01:15:57.515Z,966.5
2019-02-09T01:16:58.777Z,966.5
2019-02-09T01:18:00.033Z,966.4
2019-02-09T01:19:01.292Z,966.4
2019-02-09T01:20:02.583Z,966.3
2019-02-09T01:21:06.449Z,966.2
2019-02-09T01:22:07.707Z,966.4
2019-02-09T01:23:08.953Z,966.3
2019-02-09T01:24:10.195Z,966.3
2019-02-09T01:25:11.548Z,966.3
2019-02-09T01:26:12.806Z,966.3
2019-02-09T01:27:14.309Z,966.4
2019-02-09T01:28:15.917Z,966.3
2019-02-09T01:29:17.247Z,966.2
2019-02-09T01:30:19.801Z,966.2
2019-02-09T01:31:21.057Z,966.2
2019-02-09T01:32:22.335Z,966.3
2019-02-09T01:33:23.807Z,966.1
2019-02-09T01:34:25.072Z,966
2019-02-09T01:35:26.581Z,966.1
2019-02-09T01:36:27.827Z,966.1
2019-02-09T01:37:29.089Z,966.2
2019-02-09T01:38:30.339Z,966
2019-02-09T01:39:31.579Z,966
2019-02-09T01:40:32.913Z,966
2019-02-09T01:41:34.243Z,966
2019-02-09T01:42:35.509Z,966.1
2019-02-09T01:43:36.914Z,966
2019-02-09T01:44:38.164Z,966
2019-02-09T01:45:39.475Z,966
2019-02-09T01:46:41.149Z,966
2019-02-09T01:47:42.395Z,965.9
2019-02-09T01:48:43.645Z,965.9
2019-02-09T01:49:44.915Z,965.9
2019-02-09T01:50:46.186Z,966
2019-02-09T01:51:47.427Z,965.8
2019-02-09T01:52:48.736Z,965.9
2019-02-09T01:53:50.263Z,965.9
2019-02-09T01:54:52.550Z,965.9
2019-02-09T01:55:54.098Z,965.9
2019-02-09T01:56:55.387Z,965.9
2019-02-09T01:57:56.652Z,965.9
2019-02-09T01:58:57.915Z,965.7
2019-02-09T01:59:59.163Z,965.7
2019-02-09T02:01:01.955Z,965.8
2019-02-09T02:02:03.293Z,965.7
2019-02-09T02:03:04.552Z,965.6
2019-02-09T02:04:05.791Z,965.5
2019-02-09T02:05:07.100Z,965.7
2019-02-09T02:06:08.403Z,965.7
2019-02-09T02:07:09.657Z,965.7
2019-02-09T02:08:10.897Z,965.6
2019-02-09T02:09:12.142Z,965.6
2019-02-09T02:10:13.414Z,965.6
2019-02-09T02:11:14.938Z,965.6
2019-02-09T02:12:16.177Z,965.6
2019-02-09T02:13:17.417Z,965.6
2019-02-09T02:14:18.651Z,965.5
2019-02-09T02:15:19.904Z,965.5
2019-02-09T02:16:21.178Z,965.6
2019-02-09T02:17:22.404Z,965.6
2019-02-09T02:18:23.659Z,965.6
2019-02-09T02:19:24.901Z,965.6
2019-02-09T02:20:26.166Z,965.7
2019-02-09T02:21:27.417Z,965.6
2019-02-09T02:22:28.688Z,965.6
2019-02-09T02:23:29.922Z,965.5
2019-02-09T02:24:31.153Z,965.5
2019-02-09T02:25:32.405Z,965.6
2019-02-09T02:26:33.692Z,965.6
2019-02-09T02:27:34.934Z,965.4
2019-02-09T02:28:36.213Z,965.5
2019-02-09T02:29:37.464Z,965.4
2019-02-09T02:30:38.735Z,965.5
2019-02-09T02:31:40.020Z,965.5
2019-02-09T02:32:41.280Z,965.6
2019-02-09T02:33:42.553Z,965.6
2019-02-09T02:34:43.813Z,965.6
2019-02-09T02:35:45.055Z,965.5
2019-02-09T02:36:46.310Z,965.4
2019-02-09T02:37:47.551Z,965.5
2019-02-09T02:38:50.168Z,965.4
2019-02-09T02:39:51.396Z,965.6
2019-02-09T02:40:54.933Z,965.2
2019-02-09T02:41:56.241Z,965.4
2019-02-09T02:42:57.464Z,965.5
2019-02-09T02:43:58.724Z,965.5
2019-02-09T02:44:59.970Z,965.5
2019-02-09T02:46:01.228Z,965.5
2019-02-09T02:47:02.526Z,965.5
2019-02-09T02:48:03.766Z,965.6
2019-02-09T02:49:05.012Z,965.6
2019-02-09T02:50:06.256Z,965.6
2019-02-09T02:51:07.482Z,965.6
2019-02-09T02:52:08.750Z,965.6
2019-02-09T02:53:10.235Z,965.6
2019-02-09T02:54:11.516Z,965.6
2019-02-09T02:55:12.918Z,965.6
2019-02-09T02:56:14.307Z,965.5
2019-02-09T02:57:15.619Z,965.6
2019-02-09T02:58:16.885Z,965.5
2019-02-09T02:59:18.135Z,965.6
2019-02-09T03:00:30.283Z,965.6
2019-02-09T03:01:32.982Z,965.6
2019-02-09T03:02:34.264Z,965.6
2019-02-09T03:03:35.567Z,965.5
2019-02-09T03:04:36.804Z,965.5
2019-02-09T03:05:38.051Z,965.6
2019-02-09T03:06:39.312Z,965.5
2019-02-09T03:07:40.593Z,965.5
2019-02-09T03:08:41.858Z,965.5
2019-02-09T03:09:43.104Z,965.5
2019-02-09T03:10:44.386Z,965.6
2019-02-09T03:11:45.640Z,965.5
2019-02-09T03:12:46.944Z,965.6
2019-02-09T03:13:48.194Z,965.4
2019-02-09T03:14:49.416Z,965.4
2019-02-09T03:15:50.656Z,965.5
2019-02-09T03:16:51.930Z,965.5
2019-02-09T03:17:53.222Z,965.6
2019-02-09T03:18:54.476Z,965.5
2019-02-09T03:19:55.730Z,965.5
2019-02-09T03:20:56.958Z,965.7
2019-02-09T03:21:58.214Z,965.4
2019-02-09T03:22:59.499Z,965.4
2019-02-09T03:24:00.730Z,965.4
2019-02-09T03:25:02.198Z,965.3
2019-02-09T03:26:03.464Z,965.3
2019-02-09T03:27:04.726Z,965.4
2019-02-09T03:28:06.048Z,965.4
2019-02-09T03:29:07.290Z,965.3
2019-02-09T03:30:08.539Z,965.2
2019-02-09T03:31:09.804Z,965.2
2019-02-09T03:32:11.910Z,965.2
2019-02-09T03:33:13.200Z,965.2
2019-02-09T03:34:14.444Z,965
2019-02-09T03:35:15.727Z,965.1
2019-02-09T03:36:16.980Z,965.1
2019-02-09T03:37:18.228Z,965.1
2019-02-09T03:38:19.496Z,965.1
2019-02-09T03:39:23.293Z,965.1
2019-02-09T03:40:24.546Z,965.2
2019-02-09T03:41:25.806Z,965.1
2019-02-09T03:42:27.038Z,965.1
2019-02-09T03:43:28.349Z,965
2019-02-09T03:44:29.588Z,965.1
2019-02-09T03:45:30.839Z,965.2
2019-02-09T03:46:32.088Z,965.2
2019-02-09T03:47:33.336Z,965.2
2019-02-09T03:48:34.611Z,965.2
2019-02-09T03:49:35.845Z,965.2
2019-02-09T03:50:37.086Z,965.2
2019-02-09T03:51:38.348Z,965.2
2019-02-09T03:52:39.593Z,965.3
2019-02-09T03:53:40.882Z,965.3
2019-02-09T03:54:42.134Z,965.3
2019-02-09T03:55:43.374Z,965.2
2019-02-09T03:56:44.626Z,965.1
2019-02-09T03:57:45.912Z,965.3
2019-02-09T03:58:47.539Z,965.3
2019-02-09T03:59:48.789Z,965.3
2019-02-09T04:00:56.131Z,965.3
2019-02-09T04:01:57.371Z,965.3
2019-02-09T04:02:58.671Z,965.3
2019-02-09T04:03:59.975Z,965.3
2019-02-09T04:05:01.310Z,965.3
2019-02-09T04:06:02.561Z,965.3
2019-02-09T04:07:03.803Z,965.4
2019-02-09T04:08:05.046Z,965.3
2019-02-09T04:09:06.337Z,965.3
2019-02-09T04:10:07.647Z,965.2
2019-02-09T04:11:09.217Z,965.3
2019-02-09T04:12:10.463Z,965.2
2019-02-09T04:13:11.710Z,965.4
2019-02-09T04:14:13.435Z,965.3
2019-02-09T04:15:14.675Z,965.4
2019-02-09T04:16:15.922Z,965.3
2019-02-09T04:17:17.191Z,965.3
2019-02-09T04:18:18.433Z,965.4
2019-02-09T04:19:19.695Z,965.2
2019-02-09T04:20:20.945Z,965.3
2019-02-09T04:21:22.193Z,965.2
2019-02-09T04:22:23.463Z,965.2
2019-02-09T04:23:24.711Z,965.2
2019-02-09T04:24:26.055Z,965.2
2019-02-09T04:25:27.321Z,965.3
2019-02-09T04:26:28.565Z,965.3
2019-02-09T04:27:29.825Z,965.2
2019-02-09T04:28:31.063Z,965.2
2019-02-09T04:29:32.389Z,965.2
2019-02-09T04:30:33.625Z,965.3
2019-02-09T04:31:34.876Z,965.2
2019-02-09T04:32:36.133Z,965.2
2019-02-09T04:33:37.373Z,965.2
2019-02-09T04:34:38.886Z,965.3
2019-02-09T04:35:40.137Z,965.3
2019-02-09T04:36:41.440Z,965.2
2019-02-09T04:37:42.677Z,965.3
2019-02-09T04:38:43.921Z,965.3
2019-02-09T04:39:45.191Z,965.3
2019-02-09T04:40:46.438Z,965.2
2019-02-09T04:41:47.690Z,965.3
2019-02-09T04:42:48.929Z,965.3
2019-02-09T04:43:50.159Z,965
2019-02-09T04:44:51.445Z,965.1
2019-02-09T04:45:52.700Z,965
2019-02-09T04:46:53.967Z,965.3
2019-02-09T04:47:55.217Z,965.1
2019-02-09T04:48:56.469Z,965.3
2019-02-09T04:49:57.749Z,965.4
2019-02-09T04:50:59.000Z,965.4
2019-02-09T04:52:00.250Z,965.4
2019-02-09T04:53:01.513Z,965.4
2019-02-09T04:54:02.757Z,965.4
2019-02-09T04:55:04.025Z,965.4
2019-02-09T04:56:05.270Z,965.4
2019-02-09T04:57:06.501Z,965.5
2019-02-09T04:58:07.737Z,965.5
2019-02-09T04:59:08.964Z,965.6
2019-02-09T05:00:10.269Z,965.4
2019-02-09T05:01:14.967Z,965.5
2019-02-09T05:02:16.199Z,965.5
2019-02-09T05:03:17.437Z,965.5
2019-02-09T05:04:18.691Z,965.6
2019-02-09T05:05:20.037Z,965.5
2019-02-09T05:06:21.287Z,965.6
2019-02-09T05:07:22.549Z,965.7
2019-02-09T05:08:23.785Z,965.6
2019-02-09T05:09:25.039Z,965.5
2019-02-09T05:10:26.305Z,965.5
2019-02-09T05:11:27.571Z,965.6
2019-02-09T05:12:28.821Z,965.4
2019-02-09T05:13:33.132Z,965.5
2019-02-09T05:14:34.351Z,965.6
2019-02-09T05:15:35.615Z,965.6
2019-02-09T05:16:36.863Z,965.6
2019-02-09T05:17:41.122Z,965.5
2019-02-09T05:18:42.365Z,965.6
2019-02-09T05:19:43.614Z,965.5
2019-02-09T05:20:44.897Z,965.6
2019-02-09T05:21:46.144Z,965.6
2019-02-09T05:22:47.394Z,965.5
2019-02-09T05:23:49.361Z,965.6
2019-02-09T05:24:50.603Z,965.6
2019-02-09T05:25:51.868Z,965.5
2019-02-09T05:26:53.109Z,965.6
2019-02-09T05:27:57.088Z,965.6
2019-02-09T05:28:58.326Z,965.7
2019-02-09T05:29:59.552Z,965.6
2019-02-09T05:31:00.839Z,965.7
2019-02-09T05:32:02.146Z,965.7
2019-02-09T05:33:03.376Z,965.7
2019-02-09T05:34:04.651Z,965.6
2019-02-09T05:35:07.543Z,965.8
2019-02-09T05:36:08.861Z,965.6
2019-02-09T05:37:10.090Z,965.5
2019-02-09T05:38:11.323Z,965.6
2019-02-09T05:39:12.575Z,965.5
2019-02-09T05:40:13.818Z,965.5
2019-02-09T05:41:15.114Z,965.5
2019-02-09T05:42:16.363Z,965.5
2019-02-09T05:43:17.638Z,965.5
2019-02-09T05:44:18.902Z,965.6
2019-02-09T05:45:20.277Z,965.4
2019-02-09T05:46:21.572Z,965.6
2019-02-09T05:47:23.294Z,965.7
2019-02-09T05:48:24.558Z,965.7
2019-02-09T05:49:25.857Z,965.7
2019-02-09T05:50:27.096Z,965.6
2019-02-09T05:51:28.387Z,965.6
2019-02-09T05:52:29.633Z,965.8
2019-02-09T05:53:30.923Z,965.7
2019-02-09T05:54:32.182Z,965.7
2019-02-09T05:55:33.439Z,965.8
2019-02-09T05:56:34.712Z,965.8
2019-02-09T05:57:35.952Z,965.7
2019-02-09T05:58:37.228Z,965.8
2019-02-09T05:59:38.458Z,965.8
2019-02-09T06:00:41.976Z,965.7
2019-02-09T06:01:43.288Z,965.8
2019-02-09T06:02:48.432Z,965.8
2019-02-09T06:03:49.674Z,965.8
2019-02-09T06:04:50.902Z,965.8
2019-02-09T06:05:52.146Z,965.8
2019-02-09T06:06:53.432Z,965.9
2019-02-09T06:07:54.691Z,965.9
2019-02-09T06:08:55.928Z,965.9
2019-02-09T06:09:57.184Z,965.9
2019-02-09T06:10:58.402Z,965.9
2019-02-09T06:11:59.682Z,965.9
2019-02-09T06:13:01.150Z,966
2019-02-09T06:14:02.654Z,965.9
2019-02-09T06:15:03.930Z,966
2019-02-09T06:16:05.226Z,965.9
2019-02-09T06:17:06.540Z,965.9
2019-02-09T06:18:07.764Z,966
2019-02-09T06:19:11.153Z,965.9
2019-02-09T06:20:12.395Z,965.9
2019-02-09T06:21:13.638Z,965.9
2019-02-09T06:22:14.904Z,965.9
2019-02-09T06:23:16.146Z,966
2019-02-09T06:24:17.395Z,966
2019-02-09T06:25:18.640Z,966
2019-02-09T06:26:19.874Z,966
2019-02-09T06:27:21.158Z,966
2019-02-09T06:28:22.400Z,966.1
2019-02-09T06:29:23.645Z,966.2
2019-02-09T06:30:24.925Z,966.2
2019-02-09T06:31:26.173Z,966.1
2019-02-09T06:32:27.478Z,966.1
2019-02-09T06:33:28.928Z,966.2
2019-02-09T06:34:32.542Z,966.3
2019-02-09T06:35:33.782Z,966.2
2019-02-09T06:36:35.284Z,966.1
2019-02-09T06:38:49.900Z,966.4
2019-02-09T06:39:51.313Z,966.3
2019-02-09T06:40:52.564Z,966.4
2019-02-09T06:41:53.823Z,966.5
2019-02-09T06:42:57.295Z,966.5
2019-02-09T06:43:58.536Z,966.4
2019-02-09T06:44:59.808Z,966.4
2019-02-09T06:46:01.066Z,966.5
2019-02-09T06:47:02.332Z,966.4
2019-02-09T06:48:03.632Z,966.5
2019-02-09T06:49:06.327Z,966.5
2019-02-09T06:50:07.565Z,966.4
2019-02-09T06:51:08.824Z,966.6
2019-02-09T06:52:10.096Z,966.6
2019-02-09T06:53:11.400Z,966.6
2019-02-09T06:54:12.659Z,966.6
2019-02-09T06:55:13.919Z,966.6
2019-02-09T06:56:15.177Z,966.7
2019-02-09T06:57:16.446Z,966.7
2019-02-09T06:58:17.749Z,966.7
2019-02-09T06:59:19.265Z,966.7
2019-02-09T07:00:20.826Z,966.7
2019-02-09T07:01:22.075Z,966.9
2019-02-09T07:02:23.326Z,966.8
2019-02-09T07:03:24.634Z,966.8
2019-02-09T07:04:25.887Z,966.8
2019-02-09T07:05:34.285Z,966.8
2019-02-09T07:06:35.529Z,966.7
2019-02-09T07:07:36.777Z,966.9
2019-02-09T07:08:38.088Z,966.8
2019-02-09T07:09:39.327Z,966.8
2019-02-09T07:10:40.576Z,966.9
2019-02-09T07:11:41.859Z,967.1
2019-02-09T07:12:43.130Z,967.1
2019-02-09T07:13:44.416Z,967.1
2019-02-09T07:14:45.648Z,967.1
2019-02-09T07:15:48.172Z,967.2
2019-02-09T07:16:49.785Z,967.2
2019-02-09T07:17:53.414Z,967.3
2019-02-09T07:18:55.142Z,967.2
2019-02-09T07:19:56.772Z,967.2
2019-02-09T07:20:58.047Z,967.3
2019-02-09T07:21:59.317Z,967.4
2019-02-09T07:23:00.599Z,967.2
2019-02-09T07:24:01.893Z,967.3
2019-02-09T07:25:03.276Z,967.2
2019-02-09T07:26:04.561Z,967.4
2019-02-09T07:27:05.827Z,967.5
2019-02-09T07:28:07.087Z,967.4
2019-02-09T07:29:08.673Z,967.4
2019-02-09T07:30:10.391Z,967.4
2019-02-09T07:31:11.649Z,967.3
2019-02-09T07:32:12.902Z,967.4
2019-02-09T07:33:14.164Z,967.5
2019-02-09T07:34:15.460Z,967.6
2019-02-09T07:35:17.586Z,967.5
2019-02-09T07:36:18.889Z,967.3
2019-02-09T07:37:20.196Z,967.4
2019-02-09T07:38:21.469Z,967.6
2019-02-09T07:39:22.764Z,967.5
2019-02-09T07:40:24.011Z,967.5
2019-02-09T07:41:25.701Z,967.5
2019-02-09T07:42:27.371Z,967.6
2019-02-09T07:43:29.147Z,967.5
2019-02-09T07:44:30.423Z,967.5
2019-02-09T07:45:31.679Z,967.4
2019-02-09T07:46:32.926Z,967.4
2019-02-09T07:47:34.182Z,967.5
2019-02-09T07:48:35.433Z,967.3
2019-02-09T07:49:37.209Z,967.5
2019-02-09T07:50:38.460Z,967.5
2019-02-09T07:51:39.695Z,967.6
2019-02-09T07:52:40.952Z,967.5
2019-02-09T07:53:42.200Z,967.6
2019-02-09T07:54:43.489Z,967.6
2019-02-09T07:55:44.719Z,967.6
2019-02-09T07:56:46.955Z,967.6
2019-02-09T07:57:48.272Z,967.6
2019-02-09T07:58:50.753Z,967.6
2019-02-09T07:59:54.385Z,967.6
2019-02-09T08:00:55.671Z,967.6
2019-02-09T08:02:05.036Z,967.6
2019-02-09T08:03:06.316Z,967.7
2019-02-09T08:04:07.669Z,967.6
2019-02-09T08:05:09.246Z,967.6
2019-02-09T08:06:10.805Z,967.7
2019-02-09T08:07:22.312Z,967.8
2019-02-09T08:08:23.618Z,967.8
2019-02-09T08:09:27.128Z,967.7
2019-02-09T08:10:31.784Z,967.8
2019-02-09T08:11:37.154Z,967.7
2019-02-09T08:12:38.391Z,967.7
2019-02-09T08:13:39.655Z,967.8
2019-02-09T08:14:41.192Z,967.7
2019-02-09T08:15:42.485Z,967.7
2019-02-09T08:16:43.723Z,967.8
2019-02-09T08:17:47.335Z,967.8
2019-02-09T08:18:48.793Z,967.8
2019-02-09T08:19:50.043Z,967.8
2019-02-09T08:20:51.321Z,967.8
2019-02-09T08:21:52.877Z,967.9
2019-02-09T08:22:54.125Z,967.9
2019-02-09T08:23:55.379Z,968
2019-02-09T08:24:56.667Z,968
2019-02-09T08:25:57.950Z,968
2019-02-09T08:26:59.203Z,968
2019-02-09T08:28:00.451Z,968
2019-02-09T08:29:01.682Z,968
2019-02-09T08:30:03.511Z,968
2019-02-09T08:31:04.782Z,968.1
2019-02-09T08:32:13.337Z,968.1
2019-02-09T08:33:14.601Z,968.2
2019-02-09T08:34:16.367Z,968
2019-02-09T08:35:20.364Z,968.1
2019-02-09T08:36:21.667Z,968.1
2019-02-09T08:37:22.944Z,968.2
2019-02-09T08:38:24.226Z,968.1
2019-02-09T08:39:26.507Z,968.2
2019-02-09T08:40:27.764Z,968
2019-02-09T08:41:29.065Z,968.1
2019-02-09T08:42:30.303Z,968.1
2019-02-09T08:43:31.566Z,968.1
2019-02-09T08:44:32.844Z,968.1
2019-02-09T08:45:34.131Z,968.2
2019-02-09T08:46:35.539Z,968.2
2019-02-09T08:47:36.816Z,968.2
2019-02-09T08:48:40.906Z,968.2
2019-02-09T08:49:42.167Z,968.2
2019-02-09T08:50:43.403Z,968.2
2019-02-09T08:51:44.725Z,968.2
2019-02-09T08:52:48.510Z,968.1
2019-02-09T08:53:49.858Z,968.3
2019-02-09T08:54:51.125Z,968.3
2019-02-09T08:55:52.374Z,968.3
2019-02-09T08:56:53.650Z,968.3
2019-02-09T08:57:54.946Z,968.2
2019-02-09T08:58:56.216Z,968.3
2019-02-09T08:59:57.782Z,968.4
2019-02-09T09:00:59.327Z,968.3
2019-02-09T09:02:00.689Z,968.2
2019-02-09T09:03:01.964Z,968.2
2019-02-09T09:04:03.226Z,968.3
2019-02-09T09:05:11.076Z,968.4
2019-02-09T09:06:12.570Z,968.3
2019-02-09T09:07:13.886Z,968.3
2019-02-09T09:08:15.312Z,968.2
2019-02-09T09:09:17.504Z,968.4
2019-02-09T09:10:18.776Z,968.3
2019-02-09T09:11:20.079Z,968.5
2019-02-09T09:12:21.378Z,968.5
2019-02-09T09:13:23.030Z,968.4
2019-02-09T09:14:24.277Z,968.5
2019-02-09T09:15:25.534Z,968.6
2019-02-09T09:16:26.801Z,968.5
2019-02-09T09:17:28.127Z,968.5
2019-02-09T09:18:29.672Z,968.6
2019-02-09T09:19:30.971Z,968.6
2019-02-09T09:20:35.220Z,968.7
2019-02-09T09:21:36.494Z,968.7
2019-02-09T09:22:41.296Z,968.7
2019-02-09T09:23:42.619Z,968.6
2019-02-09T09:24:44.199Z,968.7
2019-02-09T09:25:45.478Z,968.7
2019-02-09T09:26:46.726Z,968.8
2019-02-09T09:27:50.329Z,968.8
2019-02-09T09:28:51.595Z,968.8
2019-02-09T09:29:57.487Z,968.7
2019-02-09T09:31:00.255Z,968.7
2019-02-09T09:32:01.542Z,968.9
2019-02-09T09:33:02.940Z,968.8
2019-02-09T09:34:06.550Z,969
2019-02-09T09:35:07.789Z,968.8
2019-02-09T09:36:09.323Z,968.9
2019-02-09T09:37:11.953Z,968.9
2019-02-09T09:38:13.282Z,968.8
2019-02-09T09:39:14.557Z,968.8
2019-02-09T09:40:15.930Z,968.7
2019-02-09T09:41:17.345Z,968.7
2019-02-09T09:42:18.648Z,968.7
2019-02-09T09:43:22.814Z,968.8
2019-02-09T09:44:24.115Z,969
2019-02-09T09:45:25.615Z,969.1
2019-02-09T09:46:29.629Z,969
2019-02-09T09:47:33.554Z,969
2019-02-09T09:48:34.833Z,969
2019-02-09T09:49:36.108Z,968.9
2019-02-09T09:50:37.652Z,969
2019-02-09T09:51:38.913Z,968.9
2019-02-09T09:52:40.201Z,968.9
2019-02-09T09:53:44.460Z,968.9
2019-02-09T09:54:45.745Z,968.8
2019-02-09T09:55:50.009Z,968.8
2019-02-09T09:56:51.249Z,968.9
2019-02-09T09:57:52.881Z,968.9
2019-02-09T09:58:54.171Z,968.8
2019-02-09T09:59:58.133Z,968.8
2019-02-09T10:00:59.800Z,968.8
2019-02-09T10:02:01.053Z,968.9
2019-02-09T10:03:02.595Z,968.7
2019-02-09T10:04:03.942Z,968.7
2019-02-09T10:05:05.207Z,968.9
2019-02-09T10:06:06.840Z,968.9
2019-02-09T10:07:08.132Z,969
2019-02-09T10:08:12.082Z,969.1
2019-02-09T10:09:13.416Z,969.1
2019-02-09T10:10:14.671Z,969.1
2019-02-09T10:11:15.996Z,969
2019-02-09T10:12:19.643Z,969
2019-02-09T10:13:20.910Z,969
2019-02-09T10:14:22.267Z,969.1
2019-02-09T10:15:23.516Z,969.1
2019-02-09T10:16:24.804Z,969.2
2019-02-09T10:17:29.302Z,969.1
2019-02-09T10:18:33.221Z,969.2
2019-02-09T10:19:34.542Z,969.2
2019-02-09T10:20:35.986Z,969.2
2019-02-09T10:21:37.243Z,969.2
2019-02-09T10:22:38.540Z,969.3
2019-02-09T10:23:40.277Z,969.3
2019-02-09T10:24:41.611Z,969.4
2019-02-09T10:25:42.896Z,969.5
2019-02-09T10:26:44.179Z,969.5
2019-02-09T10:27:45.485Z,969.5
2019-02-09T10:28:46.800Z,969.4
2019-02-09T10:29:48.107Z,969.5
2019-02-09T10:30:52.282Z,969.6
2019-02-09T10:31:54.661Z,969.4
2019-02-09T10:32:55.914Z,969.5
2019-02-09T10:33:57.178Z,969.4
2019-02-09T10:35:07.444Z,969.3
2019-02-09T10:36:09.073Z,969.4
2019-02-09T10:37:10.368Z,969.4
2019-02-09T10:38:15.686Z,969.4
2019-02-09T10:39:17.238Z,969.2
2019-02-09T10:40:18.538Z,969.3
2019-02-09T10:41:20.089Z,969.4
2019-02-09T10:42:21.373Z,969.3
2019-02-09T10:43:22.631Z,969.4
2019-02-09T10:44:23.895Z,969.3
2019-02-09T10:45:25.209Z,969.3
2019-02-09T10:46:26.471Z,969.3
2019-02-09T10:47:30.789Z,969.2
2019-02-09T10:48:34.105Z,969.2
2019-02-09T10:49:35.700Z,969.2
2019-02-09T10:50:39.713Z,969.2
2019-02-09T10:51:41.005Z,969.2
2019-02-09T10:52:42.284Z,969.2
2019-02-09T10:53:43.824Z,969.1
2019-02-09T10:54:50.861Z,969
2019-02-09T10:55:52.343Z,968.9
2019-02-09T10:56:54.379Z,969.1
2019-02-09T10:57:57.323Z,969.1
2019-02-09T10:58:58.637Z,969
2019-02-09T11:00:00.244Z,969
2019-02-09T11:01:01.521Z,969
2019-02-09T11:02:02.755Z,969
2019-02-09T11:03:08.086Z,968.9
2019-02-09T11:04:09.527Z,969
2019-02-09T11:05:10.803Z,969
2019-02-09T11:06:12.389Z,969
2019-02-09T11:07:13.695Z,968.9
2019-02-09T11:08:14.967Z,969
2019-02-09T11:09:18.639Z,969.1
2019-02-09T11:10:22.352Z,969.1
2019-02-09T11:11:26.314Z,969.1
2019-02-09T11:12:27.889Z,969
2019-02-09T11:13:29.148Z,969
2019-02-09T11:14:35.319Z,969
2019-02-09T11:15:36.575Z,969
2019-02-09T11:16:37.881Z,969
2019-02-09T11:17:39.401Z,969.1
2019-02-09T11:18:40.703Z,969
2019-02-09T11:19:46.852Z,969
2019-02-09T11:20:51.711Z,969
2019-02-09T11:21:53.000Z,969.1
2019-02-09T11:22:54.299Z,968.9
2019-02-09T11:23:55.588Z,969
2019-02-09T11:24:59.295Z,968.8
2019-02-09T11:26:03.699Z,968.9
2019-02-09T11:27:05.366Z,968.9
2019-02-09T11:28:06.697Z,969
2019-02-09T11:29:08.571Z,968.8
2019-02-09T11:30:09.921Z,968.9
2019-02-09T11:31:11.268Z,968.9
2019-02-09T11:32:12.554Z,968.9
2019-02-09T11:33:16.207Z,968.9
2019-02-09T11:34:18.331Z,969
2019-02-09T11:35:19.815Z,968.9
2019-02-09T11:36:27.217Z,968.8
2019-02-09T11:37:28.594Z,968.9
2019-02-09T11:38:29.849Z,968.8
2019-02-09T11:39:31.435Z,968.9
2019-02-09T11:40:32.703Z,969
2019-02-09T11:41:37.351Z,969
2019-02-09T11:42:41.283Z,968.8
2019-02-09T11:43:47.166Z,968.8
2019-02-09T11:44:48.617Z,968.8
2019-02-09T11:45:52.268Z,968.8
2019-02-09T11:46:53.757Z,968.8
2019-02-09T11:47:55.277Z,968.8
2019-02-09T11:48:58.813Z,968.9
2019-02-09T11:51:15.360Z,968.7
2019-02-09T11:52:18.882Z,968.7
2019-02-09T11:53:20.273Z,968.8
2019-02-09T11:54:30.563Z,968.8
2019-02-09T11:55:31.913Z,968.8
2019-02-09T11:56:36.636Z,968.7
2019-02-09T11:57:39.465Z,968.7
2019-02-09T11:58:40.794Z,968.8
2019-02-09T11:59:42.671Z,968.7
2019-02-09T12:00:44.169Z,968.6
2019-02-09T12:01:49.170Z,968.7
2019-02-09T12:02:50.435Z,968.8
2019-02-09T12:03:51.758Z,968.8
2019-02-09T12:04:53.013Z,968.8
2019-02-09T12:05:54.367Z,968.9
2019-02-09T12:06:55.666Z,969
2019-02-09T12:07:59.615Z,969.1
2019-02-09T12:09:00.955Z,969.1
2019-02-09T12:10:02.292Z,969.2
2019-02-09T12:11:03.566Z,969.3
2019-02-09T12:12:07.609Z,969.3
2019-02-09T12:13:10.409Z,969.2
2019-02-09T12:14:11.752Z,969.3
2019-02-09T12:15:18.562Z,969.3
2019-02-09T12:16:20.283Z,969.5
2019-02-09T12:17:21.736Z,969.5
2019-02-09T12:18:23.425Z,969.6
2019-02-09T12:19:25.805Z,969.6
2019-02-09T12:20:27.296Z,969.5
2019-02-09T12:21:32.711Z,969.7
2019-02-09T12:22:34.202Z,969.7
2019-02-09T12:23:38.147Z,969.6
2019-02-09T12:24:42.835Z,969.7
2019-02-09T12:25:44.237Z,969.6
2019-02-09T12:26:45.720Z,969.6
2019-02-09T12:27:47.322Z,969.5
2019-02-09T12:28:48.658Z,969.6
2019-02-09T12:29:52.205Z,969.5
2019-02-09T12:30:55.527Z,969.4
2019-02-09T12:31:57.151Z,969.5
2019-02-09T12:33:02.650Z,969.4
2019-02-09T12:34:04.417Z,969.4
2019-02-09T12:35:08.286Z,969.4
2019-02-09T12:36:12.476Z,969.3
2019-02-09T12:37:16.608Z,969.3
2019-02-09T12:38:18.101Z,969.2
2019-02-09T12:39:19.718Z,969.2
2019-02-09T12:40:21.288Z,969.3
2019-02-09T12:41:22.570Z,969.3
2019-02-09T12:42:23.853Z,969.3
2019-02-09T12:43:32.152Z,969.3
2019-02-09T12:44:33.422Z,969.3
2019-02-09T12:45:34.999Z,969.2
2019-02-09T12:46:36.297Z,969.1
2019-02-09T12:47:37.854Z,969
2019-02-09T12:48:39.292Z,969.1
2019-02-09T12:49:42.329Z,969.2
2019-02-09T12:50:43.628Z,969.2
2019-02-09T12:51:44.899Z,969.2
2019-02-09T12:52:46.487Z,969.1
2019-02-09T12:53:47.938Z,969.2
2019-02-09T12:54:49.212Z,969.2
2019-02-09T12:55:50.510Z,969.2
2019-02-09T12:56:51.803Z,969.1
2019-02-09T12:57:53.279Z,969.1
2019-02-09T12:59:05.010Z,969.2
2019-02-09T13:00:06.675Z,969.1
2019-02-09T13:01:08.270Z,969
2019-02-09T13:02:10.511Z,969.1
2019-02-09T13:03:12.368Z,969.1
2019-02-09T13:04:14.098Z,969.1
2019-02-09T13:05:15.396Z,969.1
2019-02-09T13:06:17.118Z,969.1
2019-02-09T13:07:18.405Z,969.1
2019-02-09T13:08:22.350Z,969.1
2019-02-09T13:09:36.170Z,968.8
2019-02-09T13:10:37.518Z,968.9
2019-02-09T13:11:39.282Z,969
2019-02-09T13:12:41.316Z,968.9
2019-02-09T13:13:42.574Z,968.9
2019-02-09T13:14:43.866Z,968.9
2019-02-09T13:15:45.202Z,968.9
2019-02-09T13:16:46.749Z,969.1
2019-02-09T13:17:48.040Z,969
2019-02-09T13:18:49.578Z,969
2019-02-09T13:19:51.659Z,968.9
2019-02-09T13:20:52.892Z,968.9
2019-02-09T13:21:54.316Z,969
2019-02-09T13:22:55.590Z,968.9